createdAt,value
2018-12-26T00:01:02.898Z,99559.30
2018-12-26T00:02:06.490Z,99559.30
2018-12-26T00:03:09.508Z,99560.64
2018-12-26T00:04:12.427Z,99562.08
2018-12-26T00:05:18.225Z,99558.29
2018-12-26T00:06:21.152Z,99562.45
2018-12-26T00:07:24.095Z,99562.45
2018-12-26T00:08:28.411Z,99561.41
2018-12-26T00:09:32.044Z,99561.41
2018-12-26T00:10:37.636Z,99559.84
2018-12-26T00:11:40.869Z,99556.48
2018-12-26T00:12:43.841Z,99556.88
2018-12-26T00:13:47.460Z,99550.47
2018-12-26T00:14:50.390Z,99549.90
2018-12-26T00:15:53.301Z,99549.90
2018-12-26T00:16:56.283Z,99554.42
2018-12-26T00:18:00.555Z,99552.70
2018-12-26T00:19:03.623Z,99551.37
2018-12-26T00:20:06.663Z,99551.74
2018-12-26T00:21:12.328Z,99551.74
2018-12-26T00:22:15.278Z,99554.72
2018-12-26T00:23:19.049Z,99547.49
2018-12-26T00:24:22.363Z,99545.34
2018-12-26T00:25:25.387Z,99542.23
2018-12-26T00:26:28.431Z,99542.23
2018-12-26T00:27:31.400Z,99549.45
2018-12-26T00:28:34.353Z,99551.83
2018-12-26T00:29:37.349Z,99545.72
2018-12-26T00:30:40.624Z,99545.95
2018-12-26T00:31:43.565Z,99546.98
2018-12-26T00:32:46.567Z,99546.77
2018-12-26T00:33:49.538Z,99551.54
2018-12-26T00:34:52.514Z,99551.54
2018-12-26T00:35:55.462Z,99551.02
2018-12-26T00:37:00.255Z,99552.36
2018-12-26T00:38:03.221Z,99552.36
2018-12-26T00:39:08.427Z,99548.95
2018-12-26T00:40:13.000Z,99548.95
2018-12-26T00:41:16.059Z,99542.91
2018-12-26T00:42:19.015Z,99544.01
2018-12-26T00:43:24.739Z,99544.01
2018-12-26T00:44:27.672Z,99536.67
2018-12-26T00:45:30.639Z,99542.98
2018-12-26T00:46:33.724Z,99541.95
2018-12-26T00:47:36.642Z,99543.30
2018-12-26T00:48:39.581Z,99543.30
2018-12-26T00:49:42.828Z,99546.84
2018-12-26T00:50:45.783Z,99547.30
2018-12-26T00:51:49.130Z,99547.30
2018-12-26T00:52:52.614Z,99536.81
2018-12-26T00:53:55.582Z,99540.98
2018-12-26T00:55:02.696Z,99540.98
2018-12-26T00:56:10.373Z,99552.66
2018-12-26T00:57:11.460Z,99550.36
2018-12-26T00:58:14.400Z,99550.94
2018-12-26T00:59:17.364Z,99558.21
2018-12-26T01:00:20.372Z,99551.30
2018-12-26T01:01:23.343Z,99551.37
2018-12-26T01:02:26.556Z,99551.37
2018-12-26T01:03:29.488Z,99539.64
2018-12-26T01:04:33.634Z,99539.64
2018-12-26T01:05:38.075Z,99550.03
2018-12-26T01:06:42.437Z,99540.59
2018-12-26T01:07:45.458Z,99548.83
2018-12-26T01:08:51.140Z,99552.95
2018-12-26T01:09:56.048Z,99551.87
2018-12-26T01:10:58.821Z,99547.06
2018-12-26T01:12:04.184Z,99546.38
2018-12-26T01:13:07.130Z,99550.39
2018-12-26T01:14:10.105Z,99548.24
2018-12-26T01:15:13.371Z,99545.19
2018-12-26T01:16:16.394Z,99545.19
2018-12-26T01:17:23.923Z,99545.64
2018-12-26T01:18:27.134Z,99545.64
2018-12-26T01:19:30.543Z,99544.03
2018-12-26T01:20:35.295Z,99549.16
2018-12-26T01:21:41.185Z,99546.86
2018-12-26T01:22:46.168Z,99538.37
2018-12-26T01:23:48.736Z,99538.37
2018-12-26T01:24:51.681Z,99549.90
2018-12-26T01:25:57.764Z,99544.33
2018-12-26T01:27:00.692Z,99533.63
2018-12-26T01:28:03.935Z,99533.63
2018-12-26T01:29:07.977Z,99539.94
2018-12-26T01:30:13.581Z,99535.25
2018-12-26T01:31:23.174Z,99530.77
2018-12-26T01:32:25.722Z,99538.80
2018-12-26T01:33:28.678Z,99538.91
2018-12-26T01:34:32.125Z,99538.91
2018-12-26T01:35:39.323Z,99537.69
2018-12-26T01:36:42.290Z,99531.00
2018-12-26T01:37:45.333Z,99531.38
2018-12-26T01:38:48.269Z,99531.38
2018-12-26T01:39:51.236Z,99527.13
2018-12-26T01:40:58.148Z,99524.16
2018-12-26T01:42:00.765Z,99523.70
2018-12-26T01:43:03.736Z,99523.70
2018-12-26T01:44:06.688Z,99524.59
2018-12-26T01:45:10.088Z,99524.59
2018-12-26T01:46:15.826Z,99527.50
2018-12-26T01:47:19.181Z,99526.84
2018-12-26T01:48:28.088Z,99530.36
2018-12-26T01:49:26.722Z,99523.34
2018-12-26T01:50:29.683Z,99530.56
2018-12-26T01:51:32.747Z,99523.43
2018-12-26T01:52:38.445Z,99522.68
2018-12-26T01:53:41.720Z,99522.46
2018-12-26T01:54:44.739Z,99519.72
2018-12-26T01:55:51.403Z,99520.98
2018-12-26T01:56:56.858Z,99508.94
2018-12-26T01:57:59.829Z,99511.06
2018-12-26T01:59:02.761Z,99514.42
2018-12-26T02:00:08.579Z,99506.90
2018-12-26T02:01:11.559Z,99511.59
2018-12-26T02:02:14.504Z,99511.06
2018-12-26T02:03:17.538Z,99511.14
2018-12-26T02:04:22.451Z,99511.14
2018-12-26T02:05:25.478Z,99502.91
2018-12-26T02:06:35.681Z,99505.21
2018-12-26T02:07:38.619Z,99500.59
2018-12-26T02:08:41.657Z,99492.06
2018-12-26T02:09:44.615Z,99493.92
2018-12-26T02:10:49.172Z,99494.73
2018-12-26T02:11:52.461Z,99494.73
2018-12-26T02:12:55.448Z,99495.09
2018-12-26T02:13:58.391Z,99493.84
2018-12-26T02:15:02.919Z,99491.17
2018-12-26T02:16:11.279Z,99489.66
2018-12-26T02:17:14.330Z,99494.56
2018-12-26T02:18:19.725Z,99503.50
2018-12-26T02:19:24.816Z,99501.66
2018-12-26T02:20:29.884Z,99501.66
2018-12-26T02:21:32.881Z,99499.86
2018-12-26T02:22:36.284Z,99497.48
2018-12-26T02:23:39.316Z,99497.48
2018-12-26T02:24:42.567Z,99492.05
2018-12-26T02:25:45.988Z,99492.05
2018-12-26T02:26:48.972Z,99493.17
2018-12-26T02:27:52.021Z,99482.98
2018-12-26T02:28:54.968Z,99482.98
2018-12-26T02:29:58.207Z,99487.64
2018-12-26T02:31:01.468Z,99486.45
2018-12-26T02:32:06.862Z,99486.45
2018-12-26T02:33:10.755Z,99494.05
2018-12-26T02:34:14.159Z,99494.05
2018-12-26T02:35:19.338Z,99492.44
2018-12-26T02:36:22.300Z,99485.89
2018-12-26T02:37:26.822Z,99489.02
2018-12-26T02:38:29.831Z,99493.46
2018-12-26T02:39:32.764Z,99491.54
2018-12-26T02:40:36.754Z,99488.40
2018-12-26T02:41:39.684Z,99486.40
2018-12-26T02:42:42.600Z,99485.87
2018-12-26T02:43:45.970Z,99485.87
2018-12-26T02:44:48.997Z,99484.84
2018-12-26T02:45:52.388Z,99484.84
2018-12-26T02:46:55.438Z,99491.17
2018-12-26T02:47:58.357Z,99491.17
2018-12-26T02:49:01.352Z,99488.19
2018-12-26T02:50:04.678Z,99486.12
2018-12-26T02:51:07.635Z,99481.58
2018-12-26T02:52:10.579Z,99484.91
2018-12-26T02:53:13.459Z,99484.91
2018-12-26T02:54:16.375Z,99494.66
2018-12-26T02:55:19.327Z,99484.40
2018-12-26T02:56:22.610Z,99486.79
2018-12-26T02:57:25.983Z,99486.79
2018-12-26T02:58:28.919Z,99488.13
2018-12-26T02:59:31.842Z,99483.51
2018-12-26T03:00:34.875Z,99487.90
2018-12-26T03:01:37.858Z,99487.90
2018-12-26T03:02:41.072Z,99486.93
2018-12-26T03:03:44.011Z,99494.30
2018-12-26T03:04:47.396Z,99487.44
2018-12-26T03:05:50.320Z,99489.38
2018-12-26T03:06:53.319Z,99489.38
2018-12-26T03:07:56.310Z,99492.86
2018-12-26T03:09:05.658Z,99497.39
2018-12-26T03:10:08.656Z,99485.13
2018-12-26T03:11:14.607Z,99489.68
2018-12-26T03:12:17.570Z,99486.55
2018-12-26T03:13:20.575Z,99482.40
2018-12-26T03:14:23.510Z,99486.34
2018-12-26T03:15:26.744Z,99486.34
2018-12-26T03:16:29.698Z,99481.48
2018-12-26T03:17:34.198Z,99484.06
2018-12-26T03:18:37.189Z,99476.41
2018-12-26T03:19:40.142Z,99479.73
2018-12-26T03:20:43.106Z,99481.84
2018-12-26T03:21:46.772Z,99481.84
2018-12-26T03:22:49.702Z,99476.52
2018-12-26T03:23:52.681Z,99477.09
2018-12-26T03:24:55.608Z,99477.09
2018-12-26T03:25:58.637Z,99484.70
2018-12-26T03:27:01.993Z,99471.84
2018-12-26T03:28:05.212Z,99479.36
2018-12-26T03:29:08.179Z,99470.81
2018-12-26T03:30:11.101Z,99475.11
2018-12-26T03:31:14.150Z,99470.95
2018-12-26T03:32:17.067Z,99472.81
2018-12-26T03:33:19.993Z,99475.34
2018-12-26T03:34:23.215Z,99473.92
2018-12-26T03:35:26.184Z,99473.78
2018-12-26T03:36:29.090Z,99473.78
2018-12-26T03:37:32.568Z,99471.53
2018-12-26T03:38:35.420Z,99465.45
2018-12-26T03:39:38.328Z,99465.45
2018-12-26T03:40:41.561Z,99462.10
2018-12-26T03:41:44.491Z,99464.11
2018-12-26T03:42:47.518Z,99463.75
2018-12-26T03:43:56.745Z,99463.75
2018-12-26T03:44:59.669Z,99464.98
2018-12-26T03:46:03.082Z,99455.70
2018-12-26T03:47:06.303Z,99464.69
2018-12-26T03:48:09.321Z,99464.69
2018-12-26T03:49:12.242Z,99463.95
2018-12-26T03:50:15.121Z,99460.98
2018-12-26T03:51:18.158Z,99457.58
2018-12-26T03:52:21.505Z,99461.51
2018-12-26T03:53:24.765Z,99464.25
2018-12-26T03:54:27.713Z,99456.23
2018-12-26T03:55:30.616Z,99455.03
2018-12-26T03:56:33.753Z,99462.55
2018-12-26T03:57:36.730Z,99462.55
2018-12-26T03:58:40.115Z,99461.06
2018-12-26T03:59:43.343Z,99460.46
2018-12-26T04:00:46.217Z,99465.97
2018-12-26T04:01:49.090Z,99461.59
2018-12-26T04:02:54.558Z,99458.92
2018-12-26T04:03:57.516Z,99459.87
2018-12-26T04:05:00.841Z,99461.52
2018-12-26T04:06:04.039Z,99463.16
2018-12-26T04:07:06.984Z,99462.19
2018-12-26T04:08:09.972Z,99460.62
2018-12-26T04:09:12.956Z,99465.58
2018-12-26T04:10:15.938Z,99466.34
2018-12-26T04:11:19.312Z,99464.24
2018-12-26T04:12:24.372Z,99460.23
2018-12-26T04:13:27.877Z,99461.20
2018-12-26T04:14:30.784Z,99451.71
2018-12-26T04:15:33.813Z,99453.70
2018-12-26T04:16:36.728Z,99455.95
2018-12-26T04:17:39.639Z,99457.95
2018-12-26T04:18:42.911Z,99455.25
2018-12-26T04:19:45.863Z,99456.62
2018-12-26T04:20:48.771Z,99456.62
2018-12-26T04:21:51.714Z,99458.30
2018-12-26T04:22:54.628Z,99463.54
2018-12-26T04:23:57.618Z,99451.02
2018-12-26T04:25:00.869Z,99458.88
2018-12-26T04:26:03.780Z,99453.91
2018-12-26T04:27:15.331Z,99455.09
2018-12-26T04:28:11.300Z,99455.09
2018-12-26T04:29:14.297Z,99453.41
2018-12-26T04:30:17.588Z,99458.00
2018-12-26T04:31:20.814Z,99455.28
2018-12-26T04:32:23.739Z,99455.58
2018-12-26T04:33:26.741Z,99455.58
2018-12-26T04:34:29.751Z,99454.39
2018-12-26T04:35:32.968Z,99452.28
2018-12-26T04:36:35.952Z,99459.13
2018-12-26T04:37:39.160Z,99448.20
2018-12-26T04:38:42.102Z,99457.48
2018-12-26T04:39:45.107Z,99456.89
2018-12-26T04:40:48.155Z,99457.84
2018-12-26T04:41:51.437Z,99451.16
2018-12-26T04:42:54.371Z,99462.04
2018-12-26T04:43:57.564Z,99463.30
2018-12-26T04:45:00.576Z,99452.83
2018-12-26T04:46:03.541Z,99462.84
2018-12-26T04:47:06.472Z,99461.30
2018-12-26T04:48:09.443Z,99464.12
2018-12-26T04:49:12.357Z,99461.05
2018-12-26T04:50:18.789Z,99465.94
2018-12-26T04:51:21.727Z,99470.38
2018-12-26T04:52:25.132Z,99470.38
2018-12-26T04:53:28.050Z,99467.36
2018-12-26T04:54:31.523Z,99466.22
2018-12-26T04:55:34.506Z,99471.98
2018-12-26T04:56:39.017Z,99463.80
2018-12-26T04:57:41.920Z,99469.30
2018-12-26T04:58:44.897Z,99471.67
2018-12-26T04:59:47.897Z,99472.16
2018-12-26T05:00:50.820Z,99465.09
2018-12-26T05:01:53.747Z,99464.80
2018-12-26T05:02:56.959Z,99457.09
2018-12-26T05:03:59.927Z,99462.01
2018-12-26T05:05:03.042Z,99465.80
2018-12-26T05:06:06.002Z,99457.63
2018-12-26T05:07:08.914Z,99456.12
2018-12-26T05:08:11.826Z,99456.12
2018-12-26T05:09:17.433Z,99451.97
2018-12-26T05:10:20.425Z,99451.97
2018-12-26T05:11:23.322Z,99453.84
2018-12-26T05:12:26.221Z,99452.08
2018-12-26T05:13:29.388Z,99458.03
2018-12-26T05:14:32.841Z,99450.44
2018-12-26T05:15:37.408Z,99452.87
2018-12-26T05:16:40.328Z,99452.87
2018-12-26T05:17:43.248Z,99451.55
2018-12-26T05:18:46.900Z,99451.55
2018-12-26T05:19:49.879Z,99456.32
2018-12-26T05:20:52.808Z,99447.98
2018-12-26T05:21:56.071Z,99451.67
2018-12-26T05:22:59.006Z,99451.10
2018-12-26T05:24:01.906Z,99452.45
2018-12-26T05:25:04.920Z,99454.17
2018-12-26T05:26:07.878Z,99448.75
2018-12-26T05:27:10.787Z,99440.11
2018-12-26T05:28:13.998Z,99440.11
2018-12-26T05:29:17.271Z,99444.61
2018-12-26T05:30:20.275Z,99449.88
2018-12-26T05:31:23.216Z,99447.33
2018-12-26T05:32:26.233Z,99452.61
2018-12-26T05:33:29.184Z,99446.77
2018-12-26T05:34:32.421Z,99446.31
2018-12-26T05:35:35.882Z,99448.38
2018-12-26T05:36:38.790Z,99456.16
2018-12-26T05:37:41.808Z,99456.16
2018-12-26T05:38:44.751Z,99458.34
2018-12-26T05:39:47.663Z,99458.34
2018-12-26T05:40:50.940Z,99458.76
2018-12-26T05:41:53.884Z,99455.62
2018-12-26T05:42:56.780Z,99455.62
2018-12-26T05:43:59.732Z,99455.44
2018-12-26T05:45:02.689Z,99455.05
2018-12-26T05:46:05.708Z,99455.05
2018-12-26T05:47:08.895Z,99460.41
2018-12-26T05:48:11.907Z,99461.89
2018-12-26T05:49:15.243Z,99455.99
2018-12-26T05:50:18.303Z,99454.66
2018-12-26T05:51:21.312Z,99446.79
2018-12-26T05:52:24.521Z,99460.31
2018-12-26T05:53:27.796Z,99460.31
2018-12-26T05:54:30.692Z,99455.38
2018-12-26T05:55:33.658Z,99459.70
2018-12-26T05:56:36.668Z,99464.55
2018-12-26T05:57:42.913Z,99465.28
2018-12-26T05:58:45.333Z,99463.68
2018-12-26T05:59:48.750Z,99464.22
2018-12-26T06:00:52.197Z,99464.23
2018-12-26T06:01:55.160Z,99461.13
2018-12-26T06:03:00.176Z,99460.45
2018-12-26T06:04:02.818Z,99467.13
2018-12-26T06:05:05.745Z,99465.27
2018-12-26T06:06:09.078Z,99470.45
2018-12-26T06:07:12.019Z,99476.19
2018-12-26T06:08:14.933Z,99473.81
2018-12-26T06:09:17.962Z,99473.51
2018-12-26T06:10:20.875Z,99469.12
2018-12-26T06:11:23.819Z,99469.66
2018-12-26T06:12:27.617Z,99471.33
2018-12-26T06:13:30.524Z,99471.91
2018-12-26T06:14:33.533Z,99464.11
2018-12-26T06:15:36.929Z,99470.72
2018-12-26T06:16:39.845Z,99472.17
2018-12-26T06:17:42.769Z,99472.17
2018-12-26T06:18:46.213Z,99475.53
2018-12-26T06:19:49.201Z,99475.53
2018-12-26T06:20:52.108Z,99484.36
2018-12-26T06:21:55.051Z,99477.59
2018-12-26T06:22:57.960Z,99480.20
2018-12-26T06:24:00.970Z,99468.09
2018-12-26T06:25:04.369Z,99471.52
2018-12-26T06:26:07.284Z,99467.44
2018-12-26T06:27:10.645Z,99471.45
2018-12-26T06:28:13.565Z,99471.52
2018-12-26T06:29:16.490Z,99473.09
2018-12-26T06:43:50.830Z,99479.73
2018-12-26T06:44:53.795Z,99480.91
2018-12-26T06:45:56.805Z,99480.91
2018-12-26T06:46:59.687Z,99481.83
2018-12-26T06:48:02.639Z,99490.52
2018-12-26T06:49:05.858Z,99481.91
2018-12-26T06:50:08.790Z,99486.99
2018-12-26T06:51:11.803Z,99481.84
2018-12-26T06:52:14.690Z,99483.25
2018-12-26T06:53:18.075Z,99483.05
2018-12-26T06:54:21.004Z,99481.19
2018-12-26T06:55:24.235Z,99481.19
2018-12-26T06:56:27.286Z,99481.41
2018-12-26T06:57:30.305Z,99477.67
2018-12-26T06:58:33.681Z,99482.22
2018-12-26T06:59:36.598Z,99481.69
2018-12-26T07:00:40.533Z,99481.75
2018-12-26T07:01:43.743Z,99480.34
2018-12-26T07:02:46.734Z,99478.92
2018-12-26T07:03:49.647Z,99469.69
2018-12-26T07:04:52.590Z,99477.52
2018-12-26T07:05:55.576Z,99475.19
2018-12-26T07:06:58.492Z,99477.83
2018-12-26T07:08:03.349Z,99476.80
2018-12-26T07:09:06.254Z,99483.25
2018-12-26T07:10:09.862Z,99477.17
2018-12-26T07:11:12.799Z,99479.62
2018-12-26T07:12:15.749Z,99479.62
2018-12-26T07:13:18.762Z,99485.67
2018-12-26T07:14:21.971Z,99485.67
2018-12-26T07:15:24.896Z,99491.89
2018-12-26T07:16:27.846Z,99479.13
2018-12-26T07:17:30.728Z,99482.60
2018-12-26T07:18:33.700Z,99482.60
2018-12-26T07:19:37.091Z,99485.00
2018-12-26T07:20:40.312Z,99485.00
2018-12-26T07:21:43.257Z,99487.95
2018-12-26T07:22:46.179Z,99486.84
2018-12-26T07:23:49.191Z,99484.97
2018-12-26T07:24:52.607Z,99484.97
2018-12-26T07:25:55.525Z,99484.16
2018-12-26T07:26:58.744Z,99476.30
2018-12-26T07:28:09.027Z,99484.69
2018-12-26T07:29:08.879Z,99482.31
2018-12-26T07:30:12.256Z,99478.02
2018-12-26T07:31:15.184Z,99480.10
2018-12-26T07:32:18.107Z,99485.80
2018-12-26T07:33:21.562Z,99485.95
2018-12-26T07:34:24.680Z,99482.16
2018-12-26T07:35:30.578Z,99482.59
2018-12-26T07:36:33.515Z,99483.94
2018-12-26T07:37:36.451Z,99483.94
2018-12-26T07:38:39.375Z,99481.42
2018-12-26T07:39:44.243Z,99472.82
2018-12-26T07:40:47.594Z,99483.50
2018-12-26T07:41:50.560Z,99479.79
2018-12-26T07:42:53.461Z,99474.95
2018-12-26T07:43:56.506Z,99474.95
2018-12-26T07:44:59.429Z,99483.21
2018-12-26T07:46:02.663Z,99483.21
2018-12-26T07:47:06.074Z,99481.26
2018-12-26T07:48:08.985Z,99482.83
2018-12-26T07:49:11.998Z,99477.55
2018-12-26T07:50:14.929Z,99477.02
2018-12-26T07:51:17.843Z,99476.06
2018-12-26T07:52:21.233Z,99476.52
2018-12-26T07:53:24.248Z,99476.52
2018-12-26T07:54:27.165Z,99478.59
2018-12-26T07:55:30.086Z,99480.69
2018-12-26T07:56:33.004Z,99476.73
2018-12-26T07:57:36.012Z,99473.41
2018-12-26T07:58:39.344Z,99476.02
2018-12-26T07:59:42.300Z,99483.20
2018-12-26T08:00:46.099Z,99477.11
2018-12-26T08:01:49.123Z,99484.77
2018-12-26T08:02:52.096Z,99478.69
2018-12-26T08:03:55.123Z,99478.69
2018-12-26T08:04:58.371Z,99486.61
2018-12-26T08:06:01.378Z,99483.52
2018-12-26T08:07:04.413Z,99483.36
2018-12-26T08:08:07.510Z,99488.70
2018-12-26T08:09:10.647Z,99488.70
2018-12-26T08:10:13.638Z,99489.01
2018-12-26T08:11:16.844Z,99483.73
2018-12-26T08:12:19.848Z,99483.73
2018-12-26T08:13:22.805Z,99484.77
2018-12-26T08:14:25.810Z,99484.77
2018-12-26T08:15:28.763Z,99480.30
2018-12-26T08:16:31.668Z,99480.30
2018-12-26T08:17:34.912Z,99489.67
2018-12-26T08:18:37.816Z,99489.67
2018-12-26T08:19:40.779Z,99481.26
2018-12-26T08:20:43.691Z,99481.26
2018-12-26T08:21:48.202Z,99485.88
2018-12-26T08:22:51.216Z,99486.61
2018-12-26T08:23:54.526Z,99486.61
2018-12-26T08:24:57.560Z,99486.98
2018-12-26T08:26:00.474Z,99491.69
2018-12-26T08:27:03.391Z,99497.41
2018-12-26T08:28:06.717Z,99497.41
2018-12-26T08:29:11.952Z,99492.80
2018-12-26T08:30:15.279Z,99494.66
2018-12-26T08:31:18.232Z,99494.66
2018-12-26T08:32:21.255Z,99496.66
2018-12-26T08:33:24.576Z,99499.86
2018-12-26T08:34:28.384Z,99499.86
2018-12-26T08:35:31.311Z,99499.55
2018-12-26T08:36:37.301Z,99495.97
2018-12-26T08:37:40.259Z,99507.66
2018-12-26T08:38:43.212Z,99507.66
2018-12-26T08:39:46.182Z,99504.78
2018-12-26T08:40:50.071Z,99503.27
2018-12-26T08:41:53.997Z,99502.91
2018-12-26T08:42:57.370Z,99502.91
2018-12-26T08:44:00.385Z,99499.34
2018-12-26T08:45:03.313Z,99497.27
2018-12-26T08:46:09.121Z,99496.05
2018-12-26T08:47:12.558Z,99499.61
2018-12-26T08:48:15.458Z,99498.19
2018-12-26T08:49:18.817Z,99497.96
2018-12-26T08:50:21.815Z,99497.96
2018-12-26T08:51:24.735Z,99502.66
2018-12-26T08:52:31.489Z,99494.48
2018-12-26T08:53:34.432Z,99503.11
2018-12-26T08:54:37.536Z,99497.27
2018-12-26T08:55:40.948Z,99499.92
2018-12-26T08:56:44.411Z,99503.35
2018-12-26T08:57:50.465Z,99502.83
2018-12-26T08:58:55.414Z,99505.00
2018-12-26T08:59:58.351Z,99500.00
2018-12-26T09:01:01.365Z,99500.00
2018-12-26T09:02:04.713Z,99507.59
2018-12-26T09:03:07.705Z,99507.59
2018-12-26T09:04:11.028Z,99506.54
2018-12-26T09:05:13.947Z,99506.54
2018-12-26T09:06:18.292Z,99512.44
2018-12-26T09:07:21.382Z,99510.72
2018-12-26T09:08:24.781Z,99510.72
2018-12-26T09:09:27.703Z,99510.12
2018-12-26T09:10:30.648Z,99510.55
2018-12-26T09:11:36.941Z,99506.27
2018-12-26T09:12:42.237Z,99508.11
2018-12-26T09:13:45.143Z,99499.56
2018-12-26T09:14:50.436Z,99498.77
2018-12-26T09:15:54.730Z,99501.20
2018-12-26T09:16:57.781Z,99501.44
2018-12-26T09:18:00.696Z,99503.86
2018-12-26T09:19:04.171Z,99506.94
2018-12-26T09:20:09.685Z,99504.69
2018-12-26T09:21:14.215Z,99504.17
2018-12-26T09:22:17.132Z,99510.36
2018-12-26T09:23:29.086Z,99508.34
2018-12-26T09:24:32.024Z,99513.23
2018-12-26T09:25:36.373Z,99513.23
2018-12-26T09:26:39.490Z,99511.53
2018-12-26T09:27:42.965Z,99510.58
2018-12-26T09:28:46.297Z,99512.73
2018-12-26T09:29:49.241Z,99507.16
2018-12-26T09:30:52.734Z,99509.38
2018-12-26T09:31:55.665Z,99508.56
2018-12-26T09:32:58.687Z,99512.78
2018-12-26T09:34:01.988Z,99515.69
2018-12-26T09:35:04.936Z,99504.53
2018-12-26T09:36:09.019Z,99506.78
2018-12-26T09:37:12.033Z,99511.02
2018-12-26T09:38:16.731Z,99509.98
2018-12-26T09:39:22.619Z,99518.88
2018-12-26T09:40:32.109Z,99515.26
2018-12-26T09:41:38.432Z,99518.39
2018-12-26T09:42:41.365Z,99521.13
2018-12-26T09:43:44.396Z,99521.66
2018-12-26T09:44:54.364Z,99522.02
2018-12-26T09:45:52.016Z,99517.98
2018-12-26T09:46:55.287Z,99517.98
2018-12-26T09:47:58.229Z,99516.20
2018-12-26T09:49:01.607Z,99515.20
2018-12-26T09:50:04.627Z,99514.97
2018-12-26T09:51:07.987Z,99514.97
2018-12-26T09:52:11.401Z,99517.89
2018-12-26T09:53:14.728Z,99517.89
2018-12-26T09:54:18.199Z,99517.62
2018-12-26T09:55:21.120Z,99511.50
2018-12-26T09:56:25.613Z,99514.73
2018-12-26T09:57:28.583Z,99514.23
2018-12-26T09:58:31.608Z,99521.36
2018-12-26T09:59:34.828Z,99521.09
2018-12-26T10:00:37.790Z,99519.15
2018-12-26T10:01:41.672Z,99520.42
2018-12-26T10:02:48.067Z,99519.45
2018-12-26T10:03:50.996Z,99523.13
2018-12-26T10:04:54.028Z,99523.13
2018-12-26T10:05:57.271Z,99529.20
2018-12-26T10:07:00.286Z,99527.92
2018-12-26T10:08:03.351Z,99527.92
2018-12-26T10:09:06.317Z,99523.20
2018-12-26T10:10:09.348Z,99530.44
2018-12-26T10:11:12.326Z,99524.27
2018-12-26T10:12:15.273Z,99529.77
2018-12-26T10:13:18.207Z,99532.78
2018-12-26T10:14:21.191Z,99529.30
2018-12-26T10:15:27.957Z,99532.28
2018-12-26T10:16:39.103Z,99528.87
2018-12-26T10:17:41.805Z,99535.40
2018-12-26T10:18:44.733Z,99535.40
2018-12-26T10:19:47.753Z,99526.02
2018-12-26T10:20:50.643Z,99526.92
2018-12-26T10:21:53.635Z,99526.92
2018-12-26T10:22:56.902Z,99527.06
2018-12-26T10:23:59.857Z,99532.38
2018-12-26T10:25:03.033Z,99532.38
2018-12-26T10:26:05.956Z,99525.44
2018-12-26T10:27:08.887Z,99525.44
2018-12-26T10:28:11.788Z,99527.27
2018-12-26T10:29:17.421Z,99523.62
2018-12-26T10:30:20.421Z,99523.62
2018-12-26T10:31:23.461Z,99523.45
2018-12-26T10:32:26.387Z,99520.48
2018-12-26T10:33:29.903Z,99516.69
2018-12-26T10:34:32.821Z,99514.50
2018-12-26T10:35:36.208Z,99514.50
2018-12-26T10:36:39.270Z,99509.61
2018-12-26T10:37:42.666Z,99514.59
2018-12-26T10:38:45.578Z,99508.56
2018-12-26T10:39:48.509Z,99504.72
2018-12-26T10:40:51.445Z,99512.89
2018-12-26T10:41:54.474Z,99512.47
2018-12-26T10:42:58.709Z,99514.05
2018-12-26T10:44:01.642Z,99512.05
2018-12-26T10:45:04.953Z,99507.47
2018-12-26T10:46:07.866Z,99507.47
2018-12-26T10:47:12.898Z,99508.21
2018-12-26T10:48:15.869Z,99511.61
2018-12-26T10:49:18.852Z,99511.61
2018-12-26T10:50:22.226Z,99506.51
2018-12-26T10:51:25.157Z,99502.36
2018-12-26T10:52:28.232Z,99504.45
2018-12-26T10:53:33.169Z,99510.46
2018-12-26T10:54:36.079Z,99506.08
2018-12-26T10:55:38.992Z,99506.08
2018-12-26T10:56:41.924Z,99507.61
2018-12-26T10:57:45.276Z,99503.76
2018-12-26T10:58:48.659Z,99505.83
2018-12-26T10:59:51.946Z,99505.48
2018-12-26T11:00:54.993Z,99504.66
2018-12-26T11:02:07.934Z,99504.61
2018-12-26T11:03:14.363Z,99504.61
2018-12-26T11:04:17.277Z,99496.27
2018-12-26T11:05:20.205Z,99491.95
2018-12-26T11:06:38.139Z,99495.00
2018-12-26T11:07:41.646Z,99495.00
2018-12-26T11:08:47.487Z,99490.03
2018-12-26T11:09:53.710Z,99477.47
2018-12-26T11:10:56.208Z,99482.48
2018-12-26T11:12:01.536Z,99482.48
2018-12-26T11:13:04.874Z,99467.46
2018-12-26T11:14:08.131Z,99467.46
2018-12-26T11:15:11.044Z,99455.02
2018-12-26T11:16:13.986Z,99453.44
2018-12-26T11:17:16.928Z,99451.08
2018-12-26T11:18:21.319Z,99448.52
2018-12-26T11:19:25.876Z,99447.86
2018-12-26T11:20:29.338Z,99453.27
2018-12-26T11:21:32.349Z,99452.34
2018-12-26T11:22:36.121Z,99449.20
2018-12-26T11:23:43.128Z,99450.49
2018-12-26T11:24:46.499Z,99444.14
2018-12-26T11:25:49.840Z,99440.23
2018-12-26T11:26:52.848Z,99438.64
2018-12-26T11:27:55.784Z,99441.19
2018-12-26T11:29:00.957Z,99441.19
2018-12-26T11:42:47.134Z,99413.00
2018-12-26T11:43:50.382Z,99431.88
2018-12-26T11:44:53.407Z,99431.88
2018-12-26T11:45:58.049Z,99425.70
2018-12-26T11:47:04.873Z,99425.56
2018-12-26T11:48:11.142Z,99424.77
2018-12-26T11:49:18.099Z,99429.00
2018-12-26T11:50:23.378Z,99429.11
2018-12-26T11:51:28.134Z,99425.25
2018-12-26T11:52:34.889Z,99425.25
2018-12-26T11:53:37.863Z,99418.39
2018-12-26T11:54:43.711Z,99412.48
2018-12-26T11:55:46.666Z,99414.66
2018-12-26T11:56:49.699Z,99419.78
2018-12-26T11:57:54.333Z,99419.78
2018-12-26T11:58:57.299Z,99402.23
2018-12-26T12:00:00.211Z,99402.23
2018-12-26T12:01:03.579Z,99404.22
2018-12-26T12:02:06.609Z,99413.97
2018-12-26T12:03:10.000Z,99408.19
2018-12-26T12:04:13.181Z,99415.52
2018-12-26T12:05:16.423Z,99413.92
2018-12-26T12:06:21.117Z,99416.39
2018-12-26T12:07:24.361Z,99416.39
2018-12-26T12:08:27.280Z,99420.08
2018-12-26T12:09:33.603Z,99417.10
2018-12-26T12:10:39.322Z,99423.96
2018-12-26T12:11:42.365Z,99423.67
2018-12-26T12:12:45.565Z,99418.34
2018-12-26T12:13:54.488Z,99420.03
2018-12-26T12:15:03.391Z,99420.92
2018-12-26T12:16:06.337Z,99419.08
2018-12-26T12:17:09.572Z,99417.38
2018-12-26T12:18:15.148Z,99416.88
2018-12-26T12:19:20.274Z,99416.88
2018-12-26T12:20:23.660Z,99416.66
2018-12-26T12:21:26.668Z,99419.14
2018-12-26T12:22:29.614Z,99419.69
2018-12-26T12:23:32.642Z,99411.97
2018-12-26T12:24:36.668Z,99412.89
2018-12-26T12:25:39.581Z,99414.84
2018-12-26T12:26:43.414Z,99413.09
2018-12-26T12:27:46.358Z,99416.91
2018-12-26T12:28:49.628Z,99418.00
2018-12-26T12:29:54.872Z,99418.00
2018-12-26T12:31:00.116Z,99414.72
2018-12-26T12:32:03.121Z,99411.03
2018-12-26T12:33:06.061Z,99411.03
2018-12-26T12:34:12.724Z,99415.92
2018-12-26T12:35:15.934Z,99406.98
2018-12-26T12:36:18.939Z,99412.99
2018-12-26T12:37:21.864Z,99410.60
2018-12-26T12:38:26.183Z,99410.60
2018-12-26T12:39:29.223Z,99401.95
2018-12-26T12:40:32.219Z,99403.30
2018-12-26T12:41:35.147Z,99403.39
2018-12-26T12:42:38.070Z,99403.39
2018-12-26T12:43:44.053Z,99407.16
2018-12-26T12:44:47.351Z,99401.95
2018-12-26T12:45:50.274Z,99403.69
2018-12-26T12:46:53.223Z,99403.69
2018-12-26T12:47:56.232Z,99407.76
2018-12-26T12:48:59.173Z,99407.76
2018-12-26T12:50:02.290Z,99404.61
2018-12-26T12:51:05.553Z,99401.52
2018-12-26T12:52:08.678Z,99402.70
2018-12-26T12:53:11.603Z,99402.70